createdAt,value
2023-04-02T00:00:11.956Z,92.44
2023-04-02T00:01:01.987Z,92.44
2023-04-02T00:01:39.775Z,92.39
2023-04-02T00:02:23.674Z,92.48
2023-04-02T00:02:58.693Z,92.53
2023-04-02T00:03:46.075Z,92.65
2023-04-02T00:04:22.429Z,92.65
2023-04-02T00:05:34.671Z,92.83
2023-04-02T00:06:30.252Z,92.89
2023-04-02T00:07:33.810Z,92.82
2023-04-02T00:08:18.375Z,92.74
2023-04-02T00:08:50.829Z,92.77
2023-04-02T00:09:27.778Z,92.88
2023-04-02T00:09:59.690Z,92.83
2023-04-02T00:10:35.202Z,92.71
2023-04-02T00:11:08.082Z,92.68
2023-04-02T00:11:54.789Z,92.78
2023-04-02T00:12:26.496Z,92.87
2023-04-02T00:13:31.082Z,92.91
2023-04-02T00:14:04.445Z,92.94
2023-04-02T00:14:36.656Z,93.02
2023-04-02T00:15:12.975Z,93.12
2023-04-02T00:15:49.125Z,93.13
2023-04-02T00:16:23.929Z,93.11
2023-04-02T00:16:57.847Z,93.19
2023-04-02T00:17:29.470Z,93.15
2023-04-02T00:18:02.078Z,93.20
2023-04-02T00:18:37.108Z,93.21
2023-04-02T00:19:17.244Z,93.04
2023-04-02T00:19:51.818Z,92.94
2023-04-02T00:20:26.068Z,93.02
2023-04-02T00:21:11.464Z,93.04
2023-04-02T00:21:45.776Z,93.11
2023-04-02T00:22:20.365Z,93.24
2023-04-02T00:22:52.276Z,93.02
2023-04-02T00:23:24.355Z,93.09
2023-04-02T00:23:59.366Z,92.94
2023-04-02T00:24:32.641Z,92.88
2023-04-02T00:25:13.840Z,93.02
2023-04-02T00:25:46.342Z,92.92
2023-04-02T00:26:22.145Z,92.92
2023-04-02T00:26:55.248Z,92.92
2023-04-02T00:27:27.339Z,92.90
2023-04-02T00:27:58.943Z,92.77
2023-04-02T00:28:31.055Z,92.87
2023-04-02T00:29:05.533Z,92.87
2023-04-02T00:29:37.188Z,92.82
2023-04-02T00:30:12.936Z,92.81
2023-04-02T00:30:50.382Z,92.71
2023-04-02T00:31:22.434Z,92.85
2023-04-02T00:31:54.860Z,92.84
2023-04-02T00:32:36.562Z,92.64
2023-04-02T00:33:16.281Z,92.81
2023-04-02T00:33:49.668Z,92.82
2023-04-02T00:34:25.945Z,92.97
2023-04-02T00:34:58.538Z,92.99
2023-04-02T00:35:31.153Z,92.86
2023-04-02T00:36:07.809Z,92.81
2023-04-02T00:36:39.627Z,92.98
2023-04-02T00:37:24.045Z,92.92
2023-04-02T00:37:56.760Z,93.11
2023-04-02T00:38:33.573Z,92.97
2023-04-02T00:39:17.809Z,92.82
2023-04-02T00:39:53.323Z,92.84
2023-04-02T00:40:28.387Z,92.72
2023-04-02T00:41:03.949Z,92.82
2023-04-02T00:41:38.806Z,92.67
2023-04-02T00:42:13.168Z,92.73
2023-04-02T00:42:46.505Z,92.66
2023-04-02T00:43:18.906Z,92.84
2023-04-02T00:43:51.971Z,92.86
2023-04-02T00:44:23.818Z,92.80
2023-04-02T00:44:56.055Z,92.89
2023-04-02T00:45:35.490Z,93.04
2023-04-02T00:46:19.404Z,93.25
2023-04-02T00:46:52.438Z,92.99
2023-04-02T00:47:27.377Z,92.88
2023-04-02T00:48:13.430Z,93.06
2023-04-02T00:48:49.151Z,93.03
2023-04-02T00:49:30.701Z,92.86
2023-04-02T00:50:18.716Z,92.90
2023-04-02T00:50:53.185Z,93.06
2023-04-02T00:51:31.206Z,93.26
2023-04-02T00:52:13.301Z,93.17
2023-04-02T00:52:48.203Z,93.11
2023-04-02T00:53:29.811Z,93.31
2023-04-02T00:54:04.998Z,93.54
2023-04-02T00:54:56.847Z,93.38
2023-04-02T00:55:36.550Z,93.52
2023-04-02T00:56:17.436Z,93.64
2023-04-02T00:56:53.749Z,93.56
2023-04-02T00:57:28.304Z,93.45
2023-04-02T00:58:01.470Z,93.32
2023-04-02T00:58:36.737Z,93.19
2023-04-02T00:59:23.786Z,93.13
2023-04-02T00:59:58.193Z,93.11
2023-04-02T01:00:36.124Z,93.13
2023-04-02T01:01:16.954Z,93.26
2023-04-02T01:01:54.495Z,93.31
2023-04-02T01:02:31.083Z,93.32
2023-04-02T01:03:18.372Z,93.49
2023-04-02T01:04:02.160Z,93.56
2023-04-02T01:04:35.124Z,93.40
2023-04-02T01:05:15.880Z,93.53
2023-04-02T01:05:50.419Z,93.49
2023-04-02T01:06:22.271Z,93.32
2023-04-02T01:06:54.532Z,93.51
2023-04-02T01:08:07.044Z,93.42
2023-04-02T01:09:23.627Z,93.08
2023-04-02T01:10:04.392Z,93.10
2023-04-02T01:11:13.321Z,92.99
2023-04-02T01:11:53.932Z,92.82
2023-04-02T01:12:43.343Z,92.90
2023-04-02T01:13:25.693Z,92.83
2023-04-02T01:14:36.907Z,92.75
2023-04-02T01:15:11.544Z,92.87
2023-04-02T01:16:19.923Z,92.93
2023-04-02T01:16:54.202Z,93.02
2023-04-02T01:17:46.831Z,93.02
2023-04-02T01:18:46.312Z,93.20
2023-04-02T01:19:27.208Z,93.19
2023-04-02T01:20:26.680Z,93.34
2023-04-02T01:21:03.501Z,93.33
2023-04-02T01:21:52.901Z,93.56
2023-04-02T01:22:52.260Z,93.57
2023-04-02T01:23:38.658Z,93.62
2023-04-02T01:24:13.461Z,93.57
2023-04-02T01:24:45.905Z,93.62
2023-04-02T01:25:23.601Z,93.61
2023-04-02T01:25:59.983Z,93.56
2023-04-02T01:26:58.711Z,93.58
2023-04-02T01:27:39.792Z,93.47
2023-04-02T01:28:43.495Z,93.53
2023-04-02T01:29:26.390Z,93.54
2023-04-02T01:30:00.674Z,93.45
2023-04-02T01:30:36.701Z,93.39
2023-04-02T01:31:10.646Z,93.45
2023-04-02T01:31:44.372Z,93.41
2023-04-02T01:32:20.122Z,93.46
2023-04-02T01:32:53.384Z,93.44
2023-04-02T01:33:30.385Z,93.31
2023-04-02T01:34:03.948Z,93.30
2023-04-02T01:34:36.456Z,93.36
2023-04-02T01:35:09.309Z,93.20
2023-04-02T01:35:46.495Z,93.23
2023-04-02T01:36:28.001Z,93.39
2023-04-02T01:37:24.464Z,93.41
2023-04-02T01:38:10.505Z,93.51
2023-04-02T01:38:51.089Z,93.58
2023-04-02T01:39:37.768Z,93.53
2023-04-02T01:40:23.996Z,93.50
2023-04-02T01:41:18.810Z,93.37
2023-04-02T01:42:12.046Z,93.47
2023-04-02T01:43:09.822Z,93.45
2023-04-02T01:43:47.790Z,93.34
2023-04-02T01:44:34.819Z,93.38
2023-04-02T01:45:12.410Z,93.45
2023-04-02T01:45:44.828Z,93.45
2023-04-02T01:46:38.398Z,93.50
2023-04-02T01:47:16.687Z,93.44
2023-04-02T01:47:49.052Z,93.46
2023-04-02T01:48:27.585Z,93.32
2023-04-02T01:49:15.111Z,93.32
2023-04-02T01:49:47.693Z,93.37
2023-04-02T01:50:37.515Z,93.43
2023-04-02T01:51:35.261Z,93.50
2023-04-02T01:52:07.692Z,93.45
2023-04-02T01:52:42.329Z,93.51
2023-04-02T01:53:16.882Z,93.56
2023-04-02T01:53:48.816Z,93.42
2023-04-02T01:54:21.562Z,93.46
2023-04-02T01:54:53.784Z,93.45
2023-04-02T01:55:39.251Z,93.48
2023-04-02T01:56:11.125Z,93.45
2023-04-02T01:56:44.446Z,93.37
2023-04-02T01:57:16.604Z,93.32
2023-04-02T01:57:51.493Z,93.28
2023-04-02T01:58:29.314Z,93.12
2023-04-02T01:59:02.882Z,93.14
2023-04-02T01:59:35.865Z,93.06
2023-04-02T02:00:12.596Z,93.03
2023-04-02T02:00:51.070Z,93.10
2023-04-02T02:01:27.699Z,93.11
2023-04-02T02:02:04.421Z,93.37
2023-04-02T02:02:36.370Z,93.52
2023-04-02T02:03:10.219Z,93.57
2023-04-02T02:03:43.754Z,93.75
2023-04-02T02:04:16.756Z,93.66
2023-04-02T02:04:48.866Z,93.66
2023-04-02T02:05:25.270Z,93.66
2023-04-02T02:05:57.894Z,93.85
2023-04-02T02:06:29.714Z,93.92
2023-04-02T02:07:02.621Z,93.99
2023-04-02T02:07:34.618Z,94.06
2023-04-02T02:08:10.857Z,94.16
2023-04-02T02:08:53.747Z,94.39
2023-04-02T02:09:28.988Z,94.19
2023-04-02T02:10:01.127Z,94.23
2023-04-02T02:10:39.111Z,94.23
2023-04-02T02:11:16.363Z,94.02
2023-04-02T02:11:48.637Z,94.14
2023-04-02T02:12:20.356Z,94.25
2023-04-02T02:12:52.056Z,94.21
2023-04-02T02:13:23.736Z,94.23
2023-04-02T02:14:15.611Z,94.22
2023-04-02T02:14:49.169Z,94.16
2023-04-02T02:15:23.128Z,94.29
2023-04-02T02:16:00.479Z,94.31
2023-04-02T02:16:41.658Z,94.38
2023-04-02T02:17:21.601Z,94.36
2023-04-02T02:17:59.430Z,94.24
2023-04-02T02:18:31.692Z,94.43
2023-04-02T02:19:05.223Z,94.54
2023-04-02T02:19:40.046Z,94.32
2023-04-02T02:20:13.492Z,94.22
2023-04-02T02:20:45.517Z,94.42
2023-04-02T02:21:39.928Z,94.25
2023-04-02T02:22:14.590Z,94.24
2023-04-02T02:22:48.005Z,94.37
2023-04-02T02:23:21.352Z,94.24
2023-04-02T02:23:53.906Z,94.09
2023-04-02T02:24:29.385Z,93.96
2023-04-02T02:25:05.442Z,93.80
2023-04-02T02:25:37.878Z,93.75
2023-04-02T02:26:13.251Z,93.92
2023-04-02T02:26:48.183Z,94.14
2023-04-02T02:27:22.784Z,94.16
2023-04-02T02:28:03.713Z,94.05
2023-04-02T02:28:41.335Z,93.94
2023-04-02T02:29:17.918Z,93.79
2023-04-02T02:30:07.582Z,93.98
2023-04-02T02:30:44.825Z,94.03
2023-04-02T02:31:23.106Z,94.02
2023-04-02T02:31:56.260Z,94.11
2023-04-02T02:32:31.139Z,93.98
2023-04-02T02:33:07.001Z,93.99
2023-04-02T02:33:52.867Z,94.16
2023-04-02T02:34:33.990Z,94.09
2023-04-02T02:35:16.777Z,94.23
2023-04-02T02:36:07.799Z,93.96
2023-04-02T02:36:56.685Z,93.99
2023-04-02T02:37:37.554Z,93.94
2023-04-02T02:38:29.117Z,94.01
2023-04-02T02:39:20.534Z,94.09
2023-04-02T02:39:55.130Z,94.09
2023-04-02T02:40:40.903Z,93.97
2023-04-02T02:41:24.758Z,93.97
2023-04-02T02:42:10.554Z,94.02
2023-04-02T02:42:51.613Z,94.17
2023-04-02T02:43:24.454Z,94.23
2023-04-02T02:44:08.337Z,94.07
2023-04-02T02:44:44.349Z,94.01
2023-04-02T02:45:25.013Z,94.04
2023-04-02T02:45:57.724Z,94.19
2023-04-02T02:46:30.701Z,94.32
2023-04-02T02:47:13.922Z,94.69
2023-04-02T02:47:46.754Z,94.71
2023-04-02T02:48:21.149Z,94.22
2023-04-02T02:48:55.810Z,94.11
2023-04-02T02:49:32.048Z,94.11
2023-04-02T02:50:08.710Z,94.10
2023-04-02T02:50:41.796Z,94.29
2023-04-02T02:51:23.664Z,94.47
2023-04-02T02:52:04.432Z,94.79
2023-04-02T02:52:38.241Z,94.81
2023-04-02T02:53:25.522Z,95.00
2023-04-02T02:54:03.292Z,95.16
2023-04-02T02:54:41.488Z,95.28
2023-04-02T02:55:20.011Z,95.19
2023-04-02T02:55:58.250Z,95.23
2023-04-02T02:56:34.616Z,95.29
2023-04-02T02:57:10.078Z,95.03
2023-04-02T02:57:48.460Z,95.16
2023-04-02T02:58:26.674Z,95.39
2023-04-02T02:59:00.264Z,95.37
2023-04-02T02:59:32.324Z,95.34
2023-04-02T03:00:06.911Z,95.30
2023-04-02T03:00:40.170Z,95.14
2023-04-02T03:01:12.240Z,95.10
2023-04-02T03:01:44.542Z,95.08
2023-04-02T03:02:16.425Z,95.12
2023-04-02T03:02:49.602Z,95.04
2023-04-02T03:03:24.743Z,95.14
2023-04-02T03:03:56.869Z,95.03
2023-04-02T03:04:35.812Z,95.05
2023-04-02T03:05:08.333Z,95.30
2023-04-02T03:05:41.404Z,95.14
2023-04-02T03:06:16.819Z,95.08
2023-04-02T03:06:58.759Z,94.93
2023-04-02T03:07:31.876Z,94.97
2023-04-02T03:08:06.422Z,94.94
2023-04-02T03:08:43.542Z,94.90
2023-04-02T03:09:41.862Z,95.25
2023-04-02T03:10:25.082Z,95.33
2023-04-02T03:11:05.308Z,95.27
2023-04-02T03:12:02.246Z,95.41
2023-04-02T03:12:51.742Z,95.52
2023-04-02T03:13:39.015Z,95.59
2023-04-02T03:14:36.759Z,95.53
2023-04-02T03:15:18.752Z,95.89
2023-04-02T03:15:56.047Z,95.88
2023-04-02T03:16:36.154Z,95.95
2023-04-02T03:17:18.768Z,95.93
2023-04-02T03:18:05.763Z,95.97
2023-04-02T03:18:44.204Z,95.87
2023-04-02T03:20:01.595Z,95.93
2023-04-02T03:20:33.263Z,95.93
2023-04-02T03:21:15.261Z,95.79
2023-04-02T03:21:55.014Z,95.88
2023-04-02T03:22:35.457Z,95.86
2023-04-02T03:23:27.118Z,95.80
2023-04-02T03:24:03.705Z,95.76
2023-04-02T03:24:44.189Z,95.72
2023-04-02T03:25:28.107Z,95.77
2023-04-02T03:26:13.578Z,95.73
2023-04-02T03:27:01.467Z,95.91
2023-04-02T03:27:37.232Z,95.95
2023-04-02T03:28:16.939Z,95.93
2023-04-02T03:29:15.569Z,95.85
2023-04-02T03:30:03.966Z,95.80
2023-04-02T03:30:42.040Z,95.85
2023-04-02T03:31:22.913Z,95.90
2023-04-02T03:31:56.723Z,95.71
2023-04-02T03:32:34.978Z,95.64
2023-04-02T03:33:18.906Z,95.61
2023-04-02T03:33:56.797Z,95.52
2023-04-02T03:34:44.416Z,95.48
2023-04-02T03:35:24.644Z,95.59
2023-04-02T03:36:01.387Z,95.57
2023-04-02T03:36:43.756Z,95.48
2023-04-02T03:37:26.146Z,95.46
2023-04-02T03:38:04.849Z,95.45
2023-04-02T03:38:44.683Z,95.38
2023-04-02T03:39:36.359Z,95.32
2023-04-02T03:40:18.704Z,95.40
2023-04-02T03:41:07.524Z,95.40
2023-04-02T03:41:45.619Z,95.32
2023-04-02T03:42:27.449Z,95.34
2023-04-02T03:43:02.229Z,95.33
2023-04-02T03:43:40.868Z,95.32
2023-04-02T03:44:27.958Z,95.47
2023-04-02T03:45:17.022Z,95.34
2023-04-02T03:45:53.532Z,95.49
2023-04-02T03:46:39.480Z,95.42
2023-04-02T03:47:18.244Z,95.63
2023-04-02T03:48:48.209Z,95.46
2023-04-02T03:49:27.950Z,95.59
2023-04-02T03:50:05.741Z,95.64
2023-04-02T03:50:52.692Z,95.54
2023-04-02T03:51:30.954Z,95.58
2023-04-02T03:52:11.640Z,95.76
2023-04-02T03:52:43.511Z,95.74
2023-04-02T03:53:15.142Z,95.62
2023-04-02T03:53:47.648Z,95.61
2023-04-02T03:54:19.891Z,95.66
2023-04-02T03:54:54.277Z,95.60
2023-04-02T03:55:29.803Z,95.68
2023-04-02T03:56:02.410Z,95.61
2023-04-02T03:56:40.405Z,95.49
2023-04-02T03:57:36.635Z,95.26
2023-04-02T03:58:17.714Z,95.27
2023-04-02T03:59:00.375Z,95.36
2023-04-02T03:59:43.403Z,95.41
2023-04-02T04:00:32.623Z,95.29
2023-04-02T04:01:28.697Z,95.19
2023-04-02T04:02:18.586Z,95.12
2023-04-02T04:02:54.840Z,95.12
2023-04-02T04:03:41.590Z,95.19
2023-04-02T04:04:20.985Z,95.20
2023-04-02T04:04:54.756Z,95.26
2023-04-02T04:05:32.782Z,95.48
2023-04-02T04:06:18.010Z,95.35
2023-04-02T04:06:52.849Z,95.40
2023-04-02T04:07:44.473Z,95.57
2023-04-02T04:08:20.509Z,95.55
2023-04-02T04:09:01.104Z,95.64
2023-04-02T04:09:36.345Z,95.88
2023-04-02T04:10:17.013Z,96.05
2023-04-02T04:10:58.878Z,96.20
2023-04-02T04:11:34.949Z,96.13
2023-04-02T04:12:28.228Z,96.02
2023-04-02T04:13:09.274Z,95.94
2023-04-02T04:13:47.103Z,95.94
2023-04-02T04:14:20.593Z,95.86
2023-04-02T04:15:00.753Z,95.75
2023-04-02T04:15:52.987Z,95.52
2023-04-02T04:16:43.004Z,95.62
2023-04-02T04:17:29.912Z,95.74
2023-04-02T04:18:21.597Z,95.91
2023-04-02T04:19:04.057Z,95.97
2023-04-02T04:19:47.248Z,95.95
2023-04-02T04:20:33.976Z,96.22
2023-04-02T04:21:13.439Z,96.33
2023-04-02T04:21:46.302Z,96.18
2023-04-02T04:22:30.513Z,96.20
2023-04-02T04:23:30.084Z,96.02
2023-04-02T04:24:04.823Z,96.12
2023-04-02T04:24:39.452Z,96.07
2023-04-02T04:25:29.706Z,95.93
2023-04-02T04:26:09.833Z,95.94
2023-04-02T04:26:49.698Z,95.81
2023-04-02T04:27:33.728Z,95.70
2023-04-02T04:28:08.298Z,95.54
2023-04-02T04:29:12.599Z,95.40
2023-04-02T04:30:06.143Z,95.32
2023-04-02T04:31:02.073Z,95.22
2023-04-02T04:31:41.787Z,95.19
2023-04-02T04:32:39.310Z,95.37
2023-04-02T04:33:34.689Z,95.20
2023-04-02T04:34:13.075Z,95.16
2023-04-02T04:34:51.814Z,95.15
2023-04-02T04:35:48.787Z,94.97
2023-04-02T04:36:30.850Z,95.01
2023-04-02T04:37:08.004Z,95.12
2023-04-02T04:37:43.427Z,95.37
2023-04-02T04:38:15.669Z,95.52
2023-04-02T04:38:55.658Z,95.56
2023-04-02T04:39:42.482Z,95.62
2023-04-02T04:40:27.162Z,95.55
2023-04-02T04:41:12.673Z,95.74
2023-04-02T04:41:46.459Z,95.64
2023-04-02T04:42:25.759Z,95.64
2023-04-02T04:43:03.098Z,95.70
2023-04-02T04:44:23.737Z,95.92
2023-04-02T04:45:31.540Z,95.68
2023-04-02T04:46:11.115Z,95.57
2023-04-02T04:46:49.300Z,95.23
2023-04-02T04:47:30.849Z,95.14
2023-04-02T04:48:45.766Z,94.95
2023-04-02T04:49:41.262Z,94.90
2023-04-02T04:50:36.953Z,94.45
2023-04-02T04:51:22.381Z,94.00
2023-04-02T04:52:14.590Z,93.62
2023-04-02T04:52:46.370Z,93.37
2023-04-02T04:53:23.407Z,93.80
2023-04-02T04:53:55.870Z,93.86
2023-04-02T04:54:28.682Z,94.15
2023-04-02T04:55:01.093Z,94.18
2023-04-02T04:55:42.936Z,94.12
2023-04-02T04:56:19.920Z,93.78
2023-04-02T04:56:56.844Z,94.04
2023-04-02T04:57:32.927Z,93.99
2023-04-02T04:58:25.959Z,93.83
2023-04-02T04:59:05.007Z,93.77
2023-04-02T04:59:47.200Z,93.84
2023-04-02T05:00:42.360Z,93.93
2023-04-02T05:01:24.197Z,94.35
2023-04-02T05:02:07.665Z,94.25
2023-04-02T05:02:50.733Z,94.08
2023-04-02T05:03:59.779Z,94.43
2023-04-02T05:04:36.721Z,94.76
2023-04-02T05:05:19.252Z,94.63
2023-04-02T05:05:51.558Z,94.46
2023-04-02T05:06:34.376Z,94.13
2023-04-02T05:07:44.850Z,94.15
2023-04-02T05:08:28.020Z,93.99
2023-04-02T05:09:06.755Z,94.03
2023-04-02T05:09:58.045Z,94.21
2023-04-02T05:10:44.186Z,94.20
2023-04-02T05:11:30.249Z,93.93
2023-04-02T05:12:32.984Z,94.18
2023-04-02T05:13:39.362Z,93.80
2023-04-02T05:14:29.845Z,92.95
2023-04-02T05:15:22.777Z,92.34
2023-04-02T05:16:04.879Z,92.31
2023-04-02T05:16:48.992Z,92.31
2023-04-02T05:17:39.710Z,92.18
2023-04-02T05:18:29.004Z,92.05
2023-04-02T05:19:27.334Z,91.53
2023-04-02T05:20:32.853Z,91.25
2023-04-02T05:21:14.161Z,90.86
2023-04-02T05:22:12.425Z,90.81
2023-04-02T05:23:25.603Z,90.43
2023-04-02T05:24:22.696Z,90.54
2023-04-02T05:25:09.677Z,91.03
2023-04-02T05:25:59.840Z,91.22
2023-04-02T05:26:44.408Z,90.81
2023-04-02T05:27:25.145Z,90.81
2023-04-02T05:28:25.791Z,90.53
2023-04-02T05:29:10.430Z,90.76
2023-04-02T05:29:46.427Z,90.56
2023-04-02T05:30:20.896Z,90.47
2023-04-02T05:31:03.253Z,90.41
2023-04-02T05:32:00.868Z,90.37
2023-04-02T05:32:37.552Z,90.61
2023-04-02T05:33:33.008Z,90.61
2023-04-02T05:34:04.787Z,90.43
2023-04-02T05:34:39.287Z,90.33
2023-04-02T05:35:17.000Z,90.24
2023-04-02T05:35:56.061Z,89.88
2023-04-02T05:36:29.905Z,89.41
2023-04-02T05:37:02.040Z,89.29
2023-04-02T05:37:34.456Z,89.14
2023-04-02T05:38:06.695Z,89.09
2023-04-02T05:38:44.719Z,88.98
2023-04-02T05:39:22.823Z,88.92
2023-04-02T05:40:00.719Z,89.04
2023-04-02T05:40:39.942Z,89.66
2023-04-02T05:41:38.362Z,89.07
2023-04-02T05:42:18.817Z,88.90
2023-04-02T05:42:53.208Z,88.45
2023-04-02T05:43:26.782Z,87.87
2023-04-02T05:44:07.783Z,88.39
2023-04-02T05:44:48.993Z,88.30
2023-04-02T05:45:37.357Z,88.77
2023-04-02T05:46:22.553Z,88.19
2023-04-02T05:47:01.544Z,88.16
2023-04-02T05:47:33.714Z,88.88
2023-04-02T05:48:21.118Z,88.95
2023-04-02T05:48:56.901Z,88.51
2023-04-02T05:49:48.726Z,88.46
2023-04-02T05:50:27.254Z,88.36
2023-04-02T05:51:00.137Z,88.21
2023-04-02T05:51:41.399Z,89.69
2023-04-02T05:52:18.116Z,89.39
2023-04-02T05:53:04.044Z,89.14
2023-04-02T05:53:41.124Z,89.44
2023-04-02T05:54:25.098Z,88.89
2023-04-02T05:55:11.459Z,88.28
2023-04-02T05:55:54.970Z,88.41
2023-04-02T05:56:32.676Z,88.10
2023-04-02T05:57:12.040Z,87.61
2023-04-02T05:58:06.985Z,87.80
2023-04-02T05:59:00.823Z,87.41
2023-04-02T05:59:38.502Z,86.84
2023-04-02T06:00:18.286Z,86.74
2023-04-02T06:01:01.594Z,87.65
2023-04-02T06:02:03.929Z,88.04
2023-04-02T06:02:41.479Z,87.68
2023-04-02T06:03:34.500Z,87.56
2023-04-02T06:04:15.295Z,87.78
2023-04-02T06:04:47.417Z,87.30
2023-04-02T06:05:26.529Z,87.26
2023-04-02T06:06:03.332Z,87.47
2023-04-02T06:06:44.114Z,88.34
2023-04-02T06:07:21.122Z,87.50
2023-04-02T06:08:06.393Z,87.65
2023-04-02T06:08:43.636Z,87.13
2023-04-02T06:09:22.212Z,87.20
2023-04-02T06:10:06.270Z,87.23
2023-04-02T06:10:45.857Z,87.80
2023-04-02T06:11:37.114Z,87.05
2023-04-02T06:12:08.670Z,87.15
2023-04-02T06:12:48.655Z,87.42
2023-04-02T06:13:21.015Z,88.06
2023-04-02T06:13:52.738Z,87.62
2023-04-02T06:14:24.325Z,87.50
2023-04-02T06:14:56.173Z,87.55
2023-04-02T06:15:27.993Z,87.52
2023-04-02T06:15:59.736Z,87.57
2023-04-02T06:16:33.425Z,86.77
2023-04-02T06:17:05.639Z,86.48
2023-04-02T06:18:06.973Z,86.12
2023-04-02T06:18:38.899Z,85.95
2023-04-02T06:19:20.821Z,86.46
2023-04-02T06:19:53.573Z,85.24
2023-04-02T06:20:26.180Z,84.87
2023-04-02T06:20:57.876Z,84.95
2023-04-02T06:21:29.548Z,84.77
2023-04-02T06:22:11.569Z,84.83
2023-04-02T06:22:46.198Z,84.95
2023-04-02T06:23:38.595Z,84.20
2023-04-02T06:24:14.411Z,84.75
2023-04-02T06:24:50.400Z,84.92
2023-04-02T06:25:30.191Z,85.23
2023-04-02T06:26:14.919Z,83.95
2023-04-02T06:26:59.922Z,84.34
2023-04-02T06:27:33.689Z,84.08
2023-04-02T06:28:11.937Z,83.74
2023-04-02T06:28:59.917Z,84.01
2023-04-02T06:29:38.502Z,83.84
2023-04-02T06:30:19.476Z,84.08
2023-04-02T06:30:58.164Z,83.50
2023-04-02T06:31:42.690Z,82.31
2023-04-02T06:32:14.375Z,83.22
2023-04-02T06:32:46.182Z,82.51
2023-04-02T06:33:17.848Z,82.62
2023-04-02T06:33:55.312Z,83.38
2023-04-02T06:34:29.654Z,84.27
2023-04-02T06:35:01.290Z,83.59
2023-04-02T06:36:09.275Z,82.16
2023-04-02T06:36:41.616Z,81.49
2023-04-02T06:37:35.576Z,82.29
2023-04-02T06:38:20.313Z,82.11
2023-04-02T06:38:54.334Z,81.95
2023-04-02T06:39:27.442Z,82.09
2023-04-02T06:39:59.510Z,81.63
2023-04-02T06:40:40.027Z,80.95
2023-04-02T06:41:22.900Z,79.95
2023-04-02T06:42:04.645Z,80.34
2023-04-02T06:42:40.214Z,80.18
2023-04-02T06:43:37.448Z,78.73
2023-04-02T06:44:22.655Z,77.92
2023-04-02T06:44:54.529Z,77.20
2023-04-02T06:45:32.387Z,77.63
2023-04-02T06:46:28.333Z,77.09
2023-04-02T06:47:07.381Z,77.20
2023-04-02T06:47:44.256Z,77.41
2023-04-02T06:48:19.414Z,77.42
2023-04-02T06:48:54.473Z,77.66
2023-04-02T06:49:45.958Z,78.14
2023-04-02T06:50:42.927Z,77.49
2023-04-02T06:51:18.321Z,77.90
2023-04-02T06:51:53.920Z,77.48
2023-04-02T06:52:44.856Z,77.10
2023-04-02T06:53:23.520Z,77.15
2023-04-02T06:53:56.227Z,76.96
2023-04-02T06:54:27.867Z,76.87
2023-04-02T06:54:59.490Z,76.36
2023-04-02T06:55:46.646Z,76.54
2023-04-02T06:56:46.206Z,76.59
2023-04-02T06:57:17.928Z,77.01
2023-04-02T06:57:49.643Z,77.35
2023-04-02T06:58:21.705Z,77.23
2023-04-02T06:58:53.561Z,76.20
2023-04-02T06:59:25.372Z,76.61
2023-04-02T06:59:56.936Z,77.31
2023-04-02T07:00:36.212Z,77.88
2023-04-02T07:01:17.924Z,78.15
2023-04-02T07:02:06.777Z,77.96
2023-04-02T07:02:41.207Z,78.21
2023-04-02T07:03:30.569Z,77.61
2023-04-02T07:04:02.389Z,77.55
2023-04-02T07:04:35.672Z,77.36
2023-04-02T07:05:11.929Z,77.59
2023-04-02T07:05:43.701Z,76.68
2023-04-02T07:06:17.707Z,77.10
2023-04-02T07:06:49.384Z,76.08
2023-04-02T07:07:20.993Z,76.22
2023-04-02T07:07:52.658Z,76.41
2023-04-02T07:08:24.755Z,77.22
2023-04-02T07:08:56.346Z,77.70
2023-04-02T07:09:27.939Z,77.86
2023-04-02T07:09:59.574Z,77.56
2023-04-02T07:10:31.198Z,77.48
2023-04-02T07:11:02.820Z,77.30
2023-04-02T07:11:34.603Z,77.03
2023-04-02T07:12:13.224Z,76.01
2023-04-02T07:12:44.843Z,75.78
2023-04-02T07:13:22.221Z,75.11
2023-04-02T07:13:53.823Z,74.28
2023-04-02T07:14:25.471Z,75.60
2023-04-02T07:14:57.116Z,74.93
2023-04-02T07:15:29.376Z,74.19
2023-04-02T07:16:01.408Z,74.05
2023-04-02T07:16:36.662Z,74.57
2023-04-02T07:17:16.706Z,74.98
2023-04-02T07:17:48.407Z,74.99
2023-04-02T07:18:32.195Z,73.64
2023-04-02T07:19:04.364Z,73.14
2023-04-02T07:19:36.205Z,73.26
2023-04-02T07:20:24.432Z,71.44
2023-04-02T07:20:56.759Z,71.28
2023-04-02T07:21:28.481Z,70.23
2023-04-02T07:22:00.456Z,67.63
2023-04-02T07:22:32.072Z,66.03
2023-04-02T07:23:04.062Z,64.62
2023-04-02T07:23:35.693Z,64.09
2023-04-02T07:24:07.578Z,65.22
2023-04-02T07:24:39.157Z,66.48
2023-04-02T07:25:10.916Z,67.20
2023-04-02T07:25:53.209Z,68.03
2023-04-02T07:26:27.434Z,68.29
2023-04-02T07:26:58.989Z,67.48
2023-04-02T07:27:31.043Z,68.18
2023-04-02T07:28:02.677Z,68.80
2023-04-02T07:28:34.714Z,69.09
2023-04-02T07:29:15.052Z,70.00
2023-04-02T07:29:46.803Z,70.09
2023-04-02T07:30:18.771Z,69.35
2023-04-02T07:30:51.613Z,68.63
2023-04-02T07:31:25.956Z,70.59
2023-04-02T07:31:57.715Z,72.03
2023-04-02T07:32:29.418Z,71.45
2023-04-02T07:33:01.872Z,69.60
2023-04-02T07:33:33.641Z,69.11
2023-04-02T07:34:06.101Z,69.65
2023-04-02T07:34:38.616Z,69.21
2023-04-02T07:35:10.841Z,69.90
2023-04-02T07:35:44.658Z,70.84
2023-04-02T07:36:18.464Z,70.74
2023-04-02T07:36:50.431Z,71.76
2023-04-02T07:37:22.041Z,71.99
2023-04-02T07:37:53.659Z,72.41
2023-04-02T07:38:25.429Z,72.32
2023-04-02T07:38:57.306Z,71.00
2023-04-02T07:39:28.875Z,70.58
2023-04-02T07:40:00.565Z,71.24
2023-04-02T07:40:32.169Z,70.87
2023-04-02T07:41:07.135Z,70.62
2023-04-02T07:41:56.773Z,67.71
2023-04-02T07:42:28.408Z,65.83
2023-04-02T07:43:00.723Z,65.73
2023-04-02T07:43:32.447Z,62.77
2023-04-02T07:44:04.545Z,63.42
2023-04-02T07:44:36.243Z,63.76
2023-04-02T07:45:08.636Z,62.92
2023-04-02T07:45:40.269Z,62.62
2023-04-02T07:46:15.086Z,61.19
2023-04-02T07:46:46.822Z,59.69
2023-04-02T07:47:18.469Z,60.51
2023-04-02T07:47:50.176Z,59.16
2023-04-02T07:48:21.836Z,58.65
2023-04-02T07:48:53.446Z,57.47
2023-04-02T07:49:25.085Z,58.37
2023-04-02T07:49:56.690Z,56.94
2023-04-02T07:50:28.362Z,56.69
2023-04-02T07:51:03.228Z,55.78
2023-04-02T07:51:34.783Z,55.18
2023-04-02T07:52:06.889Z,55.30
2023-04-02T07:52:42.614Z,53.17
2023-04-02T07:53:40.481Z,54.52
2023-04-02T07:54:13.059Z,53.87
2023-04-02T07:54:44.704Z,54.29
2023-04-02T07:55:17.204Z,55.45
2023-04-02T07:55:52.670Z,55.06
2023-04-02T07:56:25.143Z,54.80
2023-04-02T07:56:57.047Z,54.01
2023-04-02T07:57:28.744Z,54.61
2023-04-02T07:58:00.436Z,54.84
2023-04-02T07:58:32.929Z,55.98
2023-04-02T07:59:05.085Z,56.99
2023-04-02T07:59:36.670Z,57.16
2023-04-02T08:00:11.846Z,58.88
2023-04-02T08:00:43.506Z,60.64
2023-04-02T08:01:21.201Z,62.26
2023-04-02T08:01:53.629Z,63.22
2023-04-02T08:02:25.373Z,63.82
2023-04-02T08:02:57.242Z,64.20
2023-04-02T08:03:29.666Z,63.83
2023-04-02T08:04:03.943Z,64.09
2023-04-02T08:04:35.569Z,65.26
2023-04-02T08:05:07.860Z,64.97
2023-04-02T08:05:39.520Z,65.81
2023-04-02T08:06:12.279Z,65.47
2023-04-02T08:06:43.916Z,66.93
2023-04-02T08:07:15.719Z,67.43
2023-04-02T08:07:56.951Z,67.94
2023-04-02T08:08:28.799Z,67.88
2023-04-02T08:09:00.787Z,67.36
2023-04-02T08:09:32.397Z,68.81
2023-04-02T08:10:05.017Z,67.59
2023-04-02T08:10:36.626Z,68.05
2023-04-02T08:11:09.014Z,68.78
2023-04-02T08:11:42.216Z,69.21
2023-04-02T08:12:14.160Z,68.90
2023-04-02T08:12:46.128Z,69.65
2023-04-02T08:13:19.812Z,70.01
2023-04-02T08:13:52.186Z,69.87
2023-04-02T08:14:23.845Z,69.98
2023-04-02T08:14:55.907Z,70.53
2023-04-02T08:15:27.500Z,71.35
2023-04-02T08:15:59.879Z,71.42
2023-04-02T08:16:54.192Z,71.96
2023-04-02T08:17:27.007Z,72.55
2023-04-02T08:17:58.823Z,73.60
2023-04-02T08:18:30.985Z,73.53
2023-04-02T08:19:02.920Z,73.45
2023-04-02T08:19:44.321Z,73.43
2023-04-02T08:20:23.646Z,73.17
2023-04-02T08:20:56.047Z,73.57
2023-04-02T08:21:27.800Z,73.97
2023-04-02T08:21:59.534Z,73.75
2023-04-02T08:22:31.630Z,74.12
2023-04-02T08:23:04.083Z,73.68
2023-04-02T08:23:37.129Z,73.97
2023-04-02T08:24:08.728Z,74.37
2023-04-02T08:24:40.375Z,74.59
2023-04-02T08:25:12.325Z,74.30
2023-04-02T08:25:46.641Z,74.45
2023-04-02T08:26:18.925Z,75.43
2023-04-02T08:26:51.522Z,74.50
2023-04-02T08:27:26.461Z,74.77